sensor_id;sensor_type;location;lat;lon;timestamp;P1;durP1;ratioP1;P2;durP2;ratioP2
39842;SDS011;25514;46.764;15.406;2022-07-29T11:47:32;11.70;;;4.35;;
39842;SDS011;25514;46.764;15.406;2022-07-29T11:50:02;7.22;;;4.43;;
39842;SDS011;25514;46.764;15.406;2022-07-29T11:52:34;4.80;;;3.78;;
39842;SDS011;25514;46.764;15.406;2022-07-29T11:55:08;8.02;;;3.85;;
39842;SDS011;25514;46.764;15.406;2022-07-29T11:57:38;7.53;;;3.60;;
39842;SDS011;25514;46.764;15.406;2022-07-29T12:00:11;4.97;;;3.90;;
39842;SDS011;25514;46.764;15.406;2022-07-29T12:02:45;4.22;;;3.60;;
39842;SDS011;25514;46.764;15.406;2022-07-29T12:05:10;7.25;;;4.10;;
39842;SDS011;25514;46.764;15.406;2022-07-29T12:07:36;5.38;;;4.00;;
39842;SDS011;25514;46.764;15.406;2022-07-29T12:10:04;4.90;;;3.88;;
39842;SDS011;25514;46.764;15.406;2022-07-29T12:12:30;6.10;;;3.97;;
39842;SDS011;25514;46.764;15.406;2022-07-29T12:14:56;5.03;;;4.18;;
39842;SDS011;25514;46.764;15.406;2022-07-29T12:19:52;6.80;;;4.05;;
39842;SDS011;25514;46.764;15.406;2022-07-29T12:22:28;6.45;;;4.28;;
39842;SDS011;25514;46.764;15.406;2022-07-29T12:24:55;6.50;;;4.50;;
39842;SDS011;25514;46.764;15.406;2022-07-29T12:27:21;5.38;;;4.18;;
39842;SDS011;25514;46.764;15.406;2022-07-29T12:29:59;4.57;;;4.10;;
39842;SDS011;25514;46.764;15.406;2022-07-29T12:32:40;5.20;;;4.13;;
39842;SDS011;25514;46.764;15.406;2022-07-29T12:35:07;6.68;;;4.55;;
39842;SDS011;25514;46.764;15.406;2022-07-29T12:37:35;6.97;;;4.88;;
39842;SDS011;25514;46.764;15.406;2022-07-29T12:40:05;6.90;;;4.50;;
39842;SDS011;25514;46.764;15.406;2022-07-29T12:42:32;5.30;;;4.50;;
39842;SDS011;25514;46.764;15.406;2022-07-29T12:44:58;6.00;;;4.68;;
39842;SDS011;25514;46.764;15.406;2022-07-29T12:47:23;6.82;;;4.47;;
39842;SDS011;25514;46.764;15.406;2022-07-29T12:49:49;4.93;;;4.38;;
39842;SDS011;25514;46.764;15.406;2022-07-29T12:52:32;5.78;;;4.45;;
39842;SDS011;25514;46.764;15.406;2022-07-29T12:57:24;4.68;;;4.18;;
39842;SDS011;25514;46.764;15.406;2022-07-29T13:00:03;7.05;;;4.38;;
39842;SDS011;25514;46.764;15.406;2022-07-29T13:02:35;11.25;;;4.63;;
39842;SDS011;25514;46.764;15.406;2022-07-29T13:05:01;5.57;;;4.53;;
39842;SDS011;25514;46.764;15.406;2022-07-29T13:07:29;7.95;;;5.28;;
39842;SDS011;25514;46.764;15.406;2022-07-29T13:10:13;5.85;;;4.50;;
39842;SDS011;25514;46.764;15.406;2022-07-29T13:13:26;8.35;;;4.85;;
39842;SDS011;25514;46.764;15.406;2022-07-29T13:15:31;7.97;;;4.80;;
39842;SDS011;25514;46.764;15.406;2022-07-29T13:17:58;5.25;;;4.75;;
39842;SDS011;25514;46.764;15.406;2022-07-29T13:20:24;5.60;;;4.57;;
39842;SDS011;25514;46.764;15.406;2022-07-29T13:22:52;5.25;;;4.25;;
39842;SDS011;25514;46.764;15.406;2022-07-29T13:25:25;5.70;;;3.97;;
39842;SDS011;25514;46.764;15.406;2022-07-29T13:27:54;5.05;;;3.67;;
39842;SDS011;25514;46.764;15.406;2022-07-29T13:30:20;4.90;;;4.28;;
39842;SDS011;25514;46.764;15.406;2022-07-29T13:32:47;6.38;;;4.38;;
39842;SDS011;25514;46.764;15.406;2022-07-29T13:35:13;6.70;;;4.50;;
39842;SDS011;25514;46.764;15.406;2022-07-29T13:37:39;4.47;;;4.07;;
39842;SDS011;25514;46.764;15.406;2022-07-29T13:40:06;4.47;;;3.90;;
39842;SDS011;25514;46.764;15.406;2022-07-29T13:42:33;4.57;;;4.18;;
39842;SDS011;25514;46.764;15.406;2022-07-29T13:44:59;5.60;;;4.43;;
39842;SDS011;25514;46.764;15.406;2022-07-29T13:47:25;5.53;;;4.53;;
39842;SDS011;25514;46.764;15.406;2022-07-29T13:49:51;4.85;;;4.45;;
39842;SDS011;25514;46.764;15.406;2022-07-29T13:52:18;8.57;;;4.22;;
39842;SDS011;25514;46.764;15.406;2022-07-29T13:54:44;5.03;;;4.35;;
39842;SDS011;25514;46.764;15.406;2022-07-29T13:57:10;4.60;;;4.20;;
39842;SDS011;25514;46.764;15.406;2022-07-29T13:59:36;5.22;;;3.97;;
39842;SDS011;25514;46.764;15.406;2022-07-29T14:02:02;5.75;;;4.60;;
39842;SDS011;25514;46.764;15.406;2022-07-29T14:04:28;4.55;;;4.15;;
39842;SDS011;25514;46.764;15.406;2022-07-29T14:06:54;6.25;;;4.40;;
39842;SDS011;25514;46.764;15.406;2022-07-29T14:09:19;5.22;;;4.30;;
39842;SDS011;25514;46.764;15.406;2022-07-29T14:11:44;6.47;;;4.45;;
39842;SDS011;25514;46.764;15.406;2022-07-29T14:14:11;4.28;;;3.88;;
39842;SDS011;25514;46.764;15.406;2022-07-29T14:16:37;5.20;;;4.28;;
39842;SDS011;25514;46.764;15.406;2022-07-29T14:19:03;5.25;;;4.07;;
39842;SDS011;25514;46.764;15.406;2022-07-29T14:21:28;6.43;;;4.50;;
39842;SDS011;25514;46.764;15.406;2022-07-29T14:23:54;6.53;;;4.63;;
39842;SDS011;25514;46.764;15.406;2022-07-29T14:26:20;5.00;;;4.50;;
39842;SDS011;25514;46.764;15.406;2022-07-29T14:28:47;6.32;;;4.57;;
39842;SDS011;25514;46.764;15.406;2022-07-29T14:31:13;4.78;;;4.38;;
39842;SDS011;25514;46.764;15.406;2022-07-29T14:33:38;5.72;;;4.28;;
39842;SDS011;25514;46.764;15.406;2022-07-29T14:36:04;4.90;;;4.43;;
39842;SDS011;25514;46.764;15.406;2022-07-29T14:38:29;7.03;;;5.05;;
39842;SDS011;25514;46.764;15.406;2022-07-29T14:40:58;5.72;;;4.43;;
39842;SDS011;25514;46.764;15.406;2022-07-29T14:43:23;4.97;;;4.35;;
39842;SDS011;25514;46.764;15.406;2022-07-29T14:45:49;7.10;;;4.20;;
39842;SDS011;25514;46.764;15.406;2022-07-29T14:48:14;6.07;;;4.20;;
39842;SDS011;25514;46.764;15.406;2022-07-29T14:50:40;6.00;;;4.30;;
39842;SDS011;25514;46.764;15.406;2022-07-29T14:53:05;5.38;;;4.55;;
39842;SDS011;25514;46.764;15.406;2022-07-29T14:55:31;8.73;;;4.82;;
39842;SDS011;25514;46.764;15.406;2022-07-29T14:57:56;9.18;;;4.90;;
39842;SDS011;25514;46.764;15.406;2022-07-29T15:00:23;7.28;;;4.60;;
39842;SDS011;25514;46.764;15.406;2022-07-29T15:02:49;8.45;;;4.47;;
39842;SDS011;25514;46.764;15.406;2022-07-29T15:05:14;5.18;;;4.68;;
39842;SDS011;25514;46.764;15.406;2022-07-29T15:07:40;6.28;;;4.35;;
39842;SDS011;25514;46.764;15.406;2022-07-29T15:10:05;5.88;;;4.75;;
39842;SDS011;25514;46.764;15.406;2022-07-29T15:12:31;5.80;;;4.50;;
39842;SDS011;25514;46.764;15.406;2022-07-29T15:14:57;6.05;;;4.60;;
39842;SDS011;25514;46.764;15.406;2022-07-29T15:17:23;5.40;;;4.70;;
39842;SDS011;25514;46.764;15.406;2022-07-29T15:19:48;5.28;;;4.60;;
39842;SDS011;25514;46.764;15.406;2022-07-29T15:22:14;6.53;;;4.60;;
39842;SDS011;25514;46.764;15.406;2022-07-29T15:24:40;8.95;;;4.40;;
39842;SDS011;25514;46.764;15.406;2022-07-29T15:27:05;6.10;;;4.05;;
39842;SDS011;25514;46.764;15.406;2022-07-29T15:29:31;5.47;;;4.35;;
39842;SDS011;25514;46.764;15.406;2022-07-29T15:31:56;5.25;;;4.57;;
39842;SDS011;25514;46.764;15.406;2022-07-29T15:34:22;6.68;;;4.53;;
39842;SDS011;25514;46.764;15.406;2022-07-29T15:36:49;6.07;;;4.40;;
39842;SDS011;25514;46.764;15.406;2022-07-29T15:39:15;5.10;;;4.60;;
39842;SDS011;25514;46.764;15.406;2022-07-29T15:41:41;7.57;;;4.82;;
39842;SDS011;25514;46.764;15.406;2022-07-29T15:44:07;5.93;;;4.65;;
39842;SDS011;25514;46.764;15.406;2022-07-29T15:46:32;8.95;;;4.68;;
39842;SDS011;25514;46.764;15.406;2022-07-29T15:49:16;5.40;;;4.72;;
39842;SDS011;25514;46.764;15.406;2022-07-29T15:51:42;6.15;;;4.80;;
39842;SDS011;25514;46.764;15.406;2022-07-29T15:54:07;9.35;;;4.65;;
39842;SDS011;25514;46.764;15.406;2022-07-29T15:56:33;4.95;;;4.22;;
39842;SDS011;25514;46.764;15.406;2022-07-29T15:58:59;7.70;;;4.60;;
39842;SDS011;25514;46.764;15.406;2022-07-29T16:01:24;6.00;;;4.95;;
39842;SDS011;25514;46.764;15.406;2022-07-29T16:03:50;9.07;;;4.70;;
39842;SDS011;25514;46.764;15.406;2022-07-29T16:06:16;5.40;;;4.90;;
39842;SDS011;25514;46.764;15.406;2022-07-29T16:08:42;5.85;;;4.50;;
39842;SDS011;25514;46.764;15.406;2022-07-29T16:11:07;6.68;;;4.50;;
39842;SDS011;25514;46.764;15.406;2022-07-29T16:13:33;5.43;;;4.50;;
39842;SDS011;25514;46.764;15.406;2022-07-29T16:15:58;7.60;;;5.25;;
39842;SDS011;25514;46.764;15.406;2022-07-29T16:18:24;8.27;;;4.82;;
39842;SDS011;25514;46.764;15.406;2022-07-29T16:20:49;7.13;;;4.60;;
39842;SDS011;25514;46.764;15.406;2022-07-29T16:23:15;7.28;;;4.82;;
39842;SDS011;25514;46.764;15.406;2022-07-29T16:25:41;6.50;;;4.10;;
39842;SDS011;25514;46.764;15.406;2022-07-29T16:28:07;5.00;;;4.50;;
39842;SDS011;25514;46.764;15.406;2022-07-29T16:30:33;6.47;;;4.75;;
39842;SDS011;25514;46.764;15.406;2022-07-29T16:32:59;8.18;;;4.88;;
39842;SDS011;25514;46.764;15.406;2022-07-29T16:35:25;5.53;;;4.30;;
39842;SDS011;25514;46.764;15.406;2022-07-29T16:37:51;5.85;;;4.65;;
39842;SDS011;25514;46.764;15.406;2022-07-29T16:40:16;7.80;;;4.28;;
39842;SDS011;25514;46.764;15.406;2022-07-29T16:42:42;5.40;;;4.32;;
39842;SDS011;25514;46.764;15.406;2022-07-29T16:45:08;7.85;;;4.55;;
39842;SDS011;25514;46.764;15.406;2022-07-29T16:47:33;4.45;;;4.05;;
39842;SDS011;25514;46.764;15.406;2022-07-29T16:49:59;6.10;;;4.50;;
39842;SDS011;25514;46.764;15.406;2022-07-29T16:52:24;8.32;;;5.28;;
39842;SDS011;25514;46.764;15.406;2022-07-29T16:54:50;6.30;;;4.60;;
39842;SDS011;25514;46.764;15.406;2022-07-29T16:57:18;8.48;;;4.72;;
39842;SDS011;25514;46.764;15.406;2022-07-29T16:59:44;7.28;;;4.68;;
39842;SDS011;25514;46.764;15.406;2022-07-29T17:02:09;5.43;;;4.65;;
39842;SDS011;25514;46.764;15.406;2022-07-29T17:04:36;8.02;;;5.00;;
39842;SDS011;25514;46.764;15.406;2022-07-29T17:07:01;7.60;;;4.60;;
39842;SDS011;25514;46.764;15.406;2022-07-29T17:09:27;5.53;;;4.47;;
39842;SDS011;25514;46.764;15.406;2022-07-29T17:11:52;6.47;;;5.22;;
39842;SDS011;25514;46.764;15.406;2022-07-29T17:14:24;6.03;;;5.20;;
39842;SDS011;25514;46.764;15.406;2022-07-29T17:16:52;6.10;;;4.60;;
39842;SDS011;25514;46.764;15.406;2022-07-29T17:19:21;5.80;;;5.20;;
39842;SDS011;25514;46.764;15.406;2022-07-29T17:21:47;8.27;;;5.00;;
39842;SDS011;25514;46.764;15.406;2022-07-29T17:24:13;7.13;;;4.97;;
39842;SDS011;25514;46.764;15.406;2022-07-29T17:26:38;10.32;;;7.60;;
39842;SDS011;25514;46.764;15.406;2022-07-29T17:29:07;10.38;;;5.68;;
39842;SDS011;25514;46.764;15.406;2022-07-29T17:31:33;10.15;;;5.60;;
39842;SDS011;25514;46.764;15.406;2022-07-29T17:33:58;6.65;;;5.72;;
39842;SDS011;25514;46.764;15.406;2022-07-29T17:36:26;6.35;;;4.88;;
39842;SDS011;25514;46.764;15.406;2022-07-29T17:38:57;6.40;;;5.30;;
39842;SDS011;25514;46.764;15.406;2022-07-29T17:41:26;7.38;;;4.78;;
39842;SDS011;25514;46.764;15.406;2022-07-29T17:43:52;5.70;;;5.10;;
39842;SDS011;25514;46.764;15.406;2022-07-29T17:46:19;8.82;;;5.07;;
39842;SDS011;25514;46.764;15.406;2022-07-29T17:48:46;6.13;;;5.35;;
39842;SDS011;25514;46.764;15.406;2022-07-29T17:51:12;7.50;;;4.90;;
39842;SDS011;25514;46.764;15.406;2022-07-29T17:53:39;9.45;;;4.68;;
39842;SDS011;25514;46.764;15.406;2022-07-29T17:56:04;5.88;;;4.55;;
39842;SDS011;25514;46.764;15.406;2022-07-29T17:58:30;5.03;;;4.53;;
39842;SDS011;25514;46.764;15.406;2022-07-29T18:00:56;5.35;;;4.70;;
39842;SDS011;25514;46.764;15.406;2022-07-29T18:03:22;5.32;;;4.82;;
39842;SDS011;25514;46.764;15.406;2022-07-29T18:05:49;5.63;;;4.93;;
39842;SDS011;25514;46.764;15.406;2022-07-29T18:08:15;6.82;;;5.30;;
39842;SDS011;25514;46.764;15.406;2022-07-29T18:10:44;7.63;;;5.18;;
39842;SDS011;25514;46.764;15.406;2022-07-29T18:13:10;7.90;;;4.93;;
39842;SDS011;25514;46.764;15.406;2022-07-29T18:15:40;7.38;;;5.20;;
39842;SDS011;25514;46.764;15.406;2022-07-29T18:18:07;6.88;;;5.13;;
39842;SDS011;25514;46.764;15.406;2022-07-29T18:20:33;7.50;;;5.53;;
39842;SDS011;25514;46.764;15.406;2022-07-29T18:22:58;12.23;;;8.68;;
39842;SDS011;25514;46.764;15.406;2022-07-29T18:25:25;8.60;;;5.97;;
39842;SDS011;25514;46.764;15.406;2022-07-29T18:27:51;6.93;;;5.85;;
39842;SDS011;25514;46.764;15.406;2022-07-29T18:30:17;6.93;;;6.18;;
39842;SDS011;25514;46.764;15.406;2022-07-29T18:32:44;7.35;;;6.15;;
39842;SDS011;25514;46.764;15.406;2022-07-29T18:35:09;8.57;;;5.80;;
39842;SDS011;25514;46.764;15.406;2022-07-29T18:37:35;6.80;;;6.10;;
39842;SDS011;25514;46.764;15.406;2022-07-29T18:40:02;7.38;;;6.22;;
39842;SDS011;25514;46.764;15.406;2022-07-29T18:42:29;7.90;;;6.63;;
39842;SDS011;25514;46.764;15.406;2022-07-29T18:44:54;9.43;;;6.68;;
39842;SDS011;25514;46.764;15.406;2022-07-29T18:47:22;8.95;;;7.13;;
39842;SDS011;25514;46.764;15.406;2022-07-29T18:49:48;9.88;;;7.00;;
39842;SDS011;25514;46.764;15.406;2022-07-29T18:52:13;10.43;;;7.15;;
39842;SDS011;25514;46.764;15.406;2022-07-29T18:54:39;9.75;;;6.80;;
39842;SDS011;25514;46.764;15.406;2022-07-29T18:57:04;8.75;;;6.68;;
39842;SDS011;25514;46.764;15.406;2022-07-29T18:59:30;9.00;;;6.78;;
39842;SDS011;25514;46.764;15.406;2022-07-29T19:01:58;8.15;;;6.32;;
39842;SDS011;25514;46.764;15.406;2022-07-29T19:04:24;8.15;;;7.10;;
39842;SDS011;25514;46.764;15.406;2022-07-29T19:06:49;7.10;;;6.40;;
39842;SDS011;25514;46.764;15.406;2022-07-29T19:09:15;7.85;;;6.32;;
39842;SDS011;25514;46.764;15.406;2022-07-29T19:11:41;7.25;;;6.28;;
39842;SDS011;25514;46.764;15.406;2022-07-29T19:14:06;8.00;;;6.88;;
39842;SDS011;25514;46.764;15.406;2022-07-29T19:16:32;7.28;;;6.22;;
39842;SDS011;25514;46.764;15.406;2022-07-29T19:18:58;7.40;;;6.68;;
39842;SDS011;25514;46.764;15.406;2022-07-29T19:21:24;6.93;;;6.30;;
39842;SDS011;25514;46.764;15.406;2022-07-29T19:23:50;7.28;;;6.57;;
39842;SDS011;25514;46.764;15.406;2022-07-29T19:26:16;8.75;;;7.30;;
39842;SDS011;25514;46.764;15.406;2022-07-29T19:28:42;7.75;;;6.93;;
39842;SDS011;25514;46.764;15.406;2022-07-29T19:31:08;7.68;;;6.97;;
39842;SDS011;25514;46.764;15.406;2022-07-29T19:33:33;8.32;;;7.00;;
39842;SDS011;25514;46.764;15.406;2022-07-29T19:35:59;10.68;;;6.95;;
39842;SDS011;25514;46.764;15.406;2022-07-29T19:38:26;8.15;;;5.70;;
39842;SDS011;25514;46.764;15.406;2022-07-29T19:40:51;9.82;;;6.88;;
39842;SDS011;25514;46.764;15.406;2022-07-29T19:43:17;8.98;;;6.88;;
39842;SDS011;25514;46.764;15.406;2022-07-29T19:45:42;8.00;;;6.35;;
39842;SDS011;25514;46.764;15.406;2022-07-29T19:48:17;11.15;;;7.35;;
39842;SDS011;25514;46.764;15.406;2022-07-29T19:50:42;7.70;;;5.50;;
39842;SDS011;25514;46.764;15.406;2022-07-29T19:53:09;7.28;;;5.82;;
39842;SDS011;25514;46.764;15.406;2022-07-29T19:55:34;8.48;;;6.03;;
39842;SDS011;25514;46.764;15.406;2022-07-29T19:58:00;8.05;;;4.70;;
39842;SDS011;25514;46.764;15.406;2022-07-29T20:00:28;6.47;;;5.15;;
39842;SDS011;25514;46.764;15.406;2022-07-29T20:02:55;8.02;;;5.18;;
39842;SDS011;25514;46.764;15.406;2022-07-29T20:05:21;7.18;;;5.95;;
39842;SDS011;25514;46.764;15.406;2022-07-29T20:07:47;7.97;;;5.00;;
39842;SDS011;25514;46.764;15.406;2022-07-29T20:10:12;6.07;;;5.32;;
39842;SDS011;25514;46.764;15.406;2022-07-29T20:12:38;6.72;;;4.97;;
39842;SDS011;25514;46.764;15.406;2022-07-29T20:15:06;5.60;;;5.10;;
39842;SDS011;25514;46.764;15.406;2022-07-29T20:17:34;9.40;;;5.32;;
39842;SDS011;25514;46.764;15.406;2022-07-29T20:20:03;9.30;;;5.47;;
39842;SDS011;25514;46.764;15.406;2022-07-29T20:22:29;8.65;;;5.68;;
39842;SDS011;25514;46.764;15.406;2022-07-29T20:24:55;10.07;;;5.70;;
39842;SDS011;25514;46.764;15.406;2022-07-29T20:27:20;7.93;;;4.30;;
39842;SDS011;25514;46.764;15.406;2022-07-29T20:29:46;9.98;;;5.93;;
39842;SDS011;25514;46.764;15.406;2022-07-29T20:32:11;6.55;;;4.60;;
39842;SDS011;25514;46.764;15.406;2022-07-29T20:34:37;7.72;;;4.95;;
39842;SDS011;25514;46.764;15.406;2022-07-29T20:37:05;7.38;;;4.50;;
39842;SDS011;25514;46.764;15.406;2022-07-29T20:39:34;8.88;;;4.63;;
39842;SDS011;25514;46.764;15.406;2022-07-29T20:42:00;4.88;;;4.20;;
39842;SDS011;25514;46.764;15.406;2022-07-29T20:44:26;7.28;;;4.80;;
39842;SDS011;25514;46.764;15.406;2022-07-29T20:46:51;4.88;;;4.05;;
39842;SDS011;25514;46.764;15.406;2022-07-29T20:49:17;5.55;;;3.53;;
39842;SDS011;25514;46.764;15.406;2022-07-29T20:51:42;5.93;;;4.03;;
39842;SDS011;25514;46.764;15.406;2022-07-29T20:54:08;4.78;;;3.83;;
39842;SDS011;25514;46.764;15.406;2022-07-29T20:56:33;6.43;;;4.07;;
39842;SDS011;25514;46.764;15.406;2022-07-29T20:58:59;5.07;;;3.85;;
39842;SDS011;25514;46.764;15.406;2022-07-29T21:01:24;6.43;;;3.83;;
39842;SDS011;25514;46.764;15.406;2022-07-29T21:03:50;4.40;;;3.40;;
39842;SDS011;25514;46.764;15.406;2022-07-29T21:06:15;5.40;;;3.70;;
39842;SDS011;25514;46.764;15.406;2022-07-29T21:08:41;4.70;;;3.10;;
39842;SDS011;25514;46.764;15.406;2022-07-29T21:11:06;4.75;;;3.53;;
39842;SDS011;25514;46.764;15.406;2022-07-29T21:13:32;6.30;;;4.30;;
39842;SDS011;25514;46.764;15.406;2022-07-29T21:16:05;3.58;;;2.95;;
39842;SDS011;25514;46.764;15.406;2022-07-29T21:18:43;7.22;;;4.63;;
39842;SDS011;25514;46.764;15.406;2022-07-29T21:21:11;6.40;;;4.78;;
39842;SDS011;25514;46.764;15.406;2022-07-29T21:23:38;7.28;;;3.97;;
39842;SDS011;25514;46.764;15.406;2022-07-29T21:26:04;6.80;;;4.70;;
39842;SDS011;25514;46.764;15.406;2022-07-29T21:28:30;5.43;;;4.80;;
39842;SDS011;25514;46.764;15.406;2022-07-29T21:31:02;9.35;;;4.45;;
39842;SDS011;25514;46.764;15.406;2022-07-29T21:33:48;12.30;;;4.63;;
39842;SDS011;25514;46.764;15.406;2022-07-29T21:36:13;6.47;;;4.10;;
39842;SDS011;25514;46.764;15.406;2022-07-29T21:38:39;4.47;;;3.78;;
39842;SDS011;25514;46.764;15.406;2022-07-29T21:41:05;5.50;;;3.45;;
39842;SDS011;25514;46.764;15.406;2022-07-29T21:43:30;6.97;;;3.75;;
39842;SDS011;25514;46.764;15.406;2022-07-29T21:45:57;5.70;;;4.18;;
39842;SDS011;25514;46.764;15.406;2022-07-29T21:48:23;6.80;;;4.57;;
39842;SDS011;25514;46.764;15.406;2022-07-29T21:50:50;5.95;;;4.65;;
39842;SDS011;25514;46.764;15.406;2022-07-29T21:53:17;6.68;;;4.20;;
39842;SDS011;25514;46.764;15.406;2022-07-29T21:55:42;5.65;;;4.13;;
39842;SDS011;25514;46.764;15.406;2022-07-29T21:58:08;5.97;;;4.28;;
39842;SDS011;25514;46.764;15.406;2022-07-29T22:00:36;7.32;;;4.10;;
39842;SDS011;25514;46.764;15.406;2022-07-29T22:03:02;5.38;;;3.67;;
39842;SDS011;25514;46.764;15.406;2022-07-29T22:05:29;6.50;;;4.13;;
39842;SDS011;25514;46.764;15.406;2022-07-29T22:07:55;5.32;;;4.63;;
39842;SDS011;25514;46.764;15.406;2022-07-29T22:10:21;5.03;;;4.13;;
39842;SDS011;25514;46.764;15.406;2022-07-29T22:12:53;7.75;;;4.70;;
39842;SDS011;25514;46.764;15.406;2022-07-29T22:15:20;7.05;;;4.22;;
39842;SDS011;25514;46.764;15.406;2022-07-29T22:17:47;5.88;;;4.07;;
39842;SDS011;25514;46.764;15.406;2022-07-29T22:20:12;5.30;;;3.75;;
39842;SDS011;25514;46.764;15.406;2022-07-29T22:22:38;4.40;;;3.95;;
39842;SDS011;25514;46.764;15.406;2022-07-29T22:25:04;6.13;;;4.65;;
39842;SDS011;25514;46.764;15.406;2022-07-29T22:27:31;6.47;;;4.20;;
39842;SDS011;25514;46.764;15.406;2022-07-29T22:29:57;5.38;;;4.68;;
39842;SDS011;25514;46.764;15.406;2022-07-29T22:32:22;6.18;;;4.10;;
39842;SDS011;25514;46.764;15.406;2022-07-29T22:34:48;6.15;;;4.30;;
39842;SDS011;25514;46.764;15.406;2022-07-29T22:37:13;6.00;;;4.50;;
39842;SDS011;25514;46.764;15.406;2022-07-29T22:39:39;9.18;;;4.35;;
39842;SDS011;25514;46.764;15.406;2022-07-29T22:42:04;6.22;;;4.40;;
39842;SDS011;25514;46.764;15.406;2022-07-29T22:44:30;5.03;;;4.05;;
39842;SDS011;25514;46.764;15.406;2022-07-29T22:46:56;7.03;;;4.85;;
39842;SDS011;25514;46.764;15.406;2022-07-29T22:49:21;5.60;;;4.78;;
39842;SDS011;25514;46.764;15.406;2022-07-29T22:51:47;6.82;;;4.88;;
39842;SDS011;25514;46.764;15.406;2022-07-29T22:54:12;8.15;;;4.72;;
39842;SDS011;25514;46.764;15.406;2022-07-29T22:56:38;6.82;;;4.40;;
39842;SDS011;25514;46.764;15.406;2022-07-29T22:59:03;5.32;;;4.30;;
39842;SDS011;25514;46.764;15.406;2022-07-29T23:01:29;7.47;;;5.20;;
39842;SDS011;25514;46.764;15.406;2022-07-29T23:03:54;6.20;;;5.60;;
39842;SDS011;25514;46.764;15.406;2022-07-29T23:06:20;7.57;;;4.88;;
39842;SDS011;25514;46.764;15.406;2022-07-29T23:08:45;8.02;;;5.00;;
39842;SDS011;25514;46.764;15.406;2022-07-29T23:11:11;84.97;;;9.45;;
39842;SDS011;25514;46.764;15.406;2022-07-29T23:13:36;7.85;;;5.60;;
39842;SDS011;25514;46.764;15.406;2022-07-29T23:16:02;6.80;;;6.05;;
39842;SDS011;25514;46.764;15.406;2022-07-29T23:18:27;7.13;;;5.28;;
39842;SDS011;25514;46.764;15.406;2022-07-29T23:20:53;7.45;;;5.60;;
39842;SDS011;25514;46.764;15.406;2022-07-29T23:23:18;9.52;;;6.45;;
39842;SDS011;25514;46.764;15.406;2022-07-29T23:25:44;6.97;;;5.70;;
39842;SDS011;25514;46.764;15.406;2022-07-29T23:28:09;6.90;;;5.28;;
39842;SDS011;25514;46.764;15.406;2022-07-29T23:30:35;6.75;;;4.20;;
39842;SDS011;25514;46.764;15.406;2022-07-29T23:33:01;5.25;;;4.22;;
39842;SDS011;25514;46.764;15.406;2022-07-29T23:35:27;6.53;;;4.50;;
39842;SDS011;25514;46.764;15.406;2022-07-29T23:37:52;6.20;;;4.90;;
39842;SDS011;25514;46.764;15.406;2022-07-29T23:40:18;4.75;;;4.10;;
39842;SDS011;25514;46.764;15.406;2022-07-29T23:42:43;6.60;;;4.60;;
39842;SDS011;25514;46.764;15.406;2022-07-29T23:45:09;5.30;;;4.20;;
39842;SDS011;25514;46.764;15.406;2022-07-29T23:47:37;5.68;;;4.80;;
39842;SDS011;25514;46.764;15.406;2022-07-29T23:50:03;5.35;;;4.85;;
39842;SDS011;25514;46.764;15.406;2022-07-29T23:52:32;9.32;;;5.15;;
39842;SDS011;25514;46.764;15.406;2022-07-29T23:54:58;5.70;;;4.80;;
39842;SDS011;25514;46.764;15.406;2022-07-29T23:57:24;5.45;;;4.85;;
39842;SDS011;25514;46.764;15.406;2022-07-29T23:59:50;6.45;;;5.22;;
